sensor_id;sensor_type;location;lat;lon;timestamp;P1;durP1;ratioP1;P2;durP2;ratioP2
51148;SDS011;37210;50.058;8.688;2023-04-16T00:01:49;6.03;;;4.88;;
51148;SDS011;37210;50.058;8.688;2023-04-16T00:04:16;5.90;;;5.40;;
51148;SDS011;37210;50.058;8.688;2023-04-16T00:06:44;5.63;;;5.13;;
51148;SDS011;37210;50.058;8.688;2023-04-16T00:09:12;4.95;;;4.45;;
51148;SDS011;37210;50.058;8.688;2023-04-16T00:11:39;5.07;;;4.57;;
51148;SDS011;37210;50.058;8.688;2023-04-16T00:14:07;6.25;;;4.65;;
51148;SDS011;37210;50.058;8.688;2023-04-16T00:16:36;5.38;;;4.88;;
51148;SDS011;37210;50.058;8.688;2023-04-16T00:19:04;5.32;;;4.82;;
51148;SDS011;37210;50.058;8.688;2023-04-16T00:21:31;12.80;;;10.43;;
51148;SDS011;37210;50.058;8.688;2023-04-16T00:23:59;6.50;;;5.90;;
51148;SDS011;37210;50.058;8.688;2023-04-16T00:26:26;6.57;;;5.93;;
51148;SDS011;37210;50.058;8.688;2023-04-16T00:28:54;7.03;;;5.75;;
51148;SDS011;37210;50.058;8.688;2023-04-16T00:31:25;6.10;;;5.55;;
51148;SDS011;37210;50.058;8.688;2023-04-16T00:33:56;6.32;;;5.80;;
51148;SDS011;37210;50.058;8.688;2023-04-16T00:36:26;9.55;;;5.85;;
51148;SDS011;37210;50.058;8.688;2023-04-16T00:38:54;6.30;;;5.57;;
51148;SDS011;37210;50.058;8.688;2023-04-16T00:41:23;6.22;;;5.63;;
51148;SDS011;37210;50.058;8.688;2023-04-16T00:43:51;5.88;;;5.38;;
51148;SDS011;37210;50.058;8.688;2023-04-16T00:46:19;5.63;;;4.82;;
51148;SDS011;37210;50.058;8.688;2023-04-16T00:48:49;7.10;;;5.22;;
51148;SDS011;37210;50.058;8.688;2023-04-16T00:51:21;6.13;;;5.63;;
51148;SDS011;37210;50.058;8.688;2023-04-16T00:53:50;6.18;;;5.57;;
51148;SDS011;37210;50.058;8.688;2023-04-16T00:56:18;6.50;;;5.95;;
51148;SDS011;37210;50.058;8.688;2023-04-16T00:58:48;5.50;;;4.97;;
51148;SDS011;37210;50.058;8.688;2023-04-16T01:01:17;6.97;;;6.28;;
51148;SDS011;37210;50.058;8.688;2023-04-16T01:03:45;6.18;;;5.57;;
51148;SDS011;37210;50.058;8.688;2023-04-16T01:06:14;6.10;;;5.50;;
51148;SDS011;37210;50.058;8.688;2023-04-16T01:08:45;6.85;;;6.15;;
51148;SDS011;37210;50.058;8.688;2023-04-16T01:11:13;6.60;;;5.90;;
51148;SDS011;37210;50.058;8.688;2023-04-16T01:13:41;6.75;;;5.93;;
51148;SDS011;37210;50.058;8.688;2023-04-16T01:16:09;5.45;;;4.95;;
51148;SDS011;37210;50.058;8.688;2023-04-16T01:18:38;6.20;;;5.60;;
51148;SDS011;37210;50.058;8.688;2023-04-16T01:21:07;6.30;;;5.70;;
51148;SDS011;37210;50.058;8.688;2023-04-16T01:23:35;6.05;;;5.45;;
51148;SDS011;37210;50.058;8.688;2023-04-16T01:26:03;6.90;;;6.20;;
51148;SDS011;37210;50.058;8.688;2023-04-16T01:28:30;6.65;;;6.05;;
51148;SDS011;37210;50.058;8.688;2023-04-16T01:30:59;6.32;;;5.55;;
51148;SDS011;37210;50.058;8.688;2023-04-16T01:33:47;7.40;;;6.30;;
51148;SDS011;37210;50.058;8.688;2023-04-16T01:36:16;7.55;;;6.85;;
51148;SDS011;37210;50.058;8.688;2023-04-16T01:38:44;7.53;;;6.60;;
51148;SDS011;37210;50.058;8.688;2023-04-16T01:41:12;6.93;;;6.22;;
51148;SDS011;37210;50.058;8.688;2023-04-16T01:43:40;7.07;;;6.18;;
51148;SDS011;37210;50.058;8.688;2023-04-16T01:46:12;6.15;;;5.55;;
51148;SDS011;37210;50.058;8.688;2023-04-16T01:48:44;7.47;;;6.38;;
51148;SDS011;37210;50.058;8.688;2023-04-16T01:51:13;7.03;;;6.18;;
51148;SDS011;37210;50.058;8.688;2023-04-16T01:53:41;6.65;;;5.88;;
51148;SDS011;37210;50.058;8.688;2023-04-16T01:56:09;6.70;;;6.00;;
51148;SDS011;37210;50.058;8.688;2023-04-16T01:58:37;6.82;;;6.13;;
51148;SDS011;37210;50.058;8.688;2023-04-16T02:01:06;6.65;;;5.95;;
51148;SDS011;37210;50.058;8.688;2023-04-16T02:03:34;6.88;;;6.10;;
51148;SDS011;37210;50.058;8.688;2023-04-16T02:06:03;6.85;;;5.80;;
51148;SDS011;37210;50.058;8.688;2023-04-16T02:08:30;7.00;;;6.30;;
51148;SDS011;37210;50.058;8.688;2023-04-16T02:10:59;6.97;;;6.30;;
51148;SDS011;37210;50.058;8.688;2023-04-16T02:13:27;6.35;;;5.75;;
51148;SDS011;37210;50.058;8.688;2023-04-16T02:15:54;6.32;;;5.72;;
51148;SDS011;37210;50.058;8.688;2023-04-16T02:18:33;6.82;;;6.13;;
51148;SDS011;37210;50.058;8.688;2023-04-16T02:21:01;5.75;;;5.25;;
51148;SDS011;37210;50.058;8.688;2023-04-16T02:23:31;7.22;;;6.38;;
51148;SDS011;37210;50.058;8.688;2023-04-16T02:26:01;7.18;;;6.45;;
51148;SDS011;37210;50.058;8.688;2023-04-16T02:28:29;7.80;;;6.45;;
51148;SDS011;37210;50.058;8.688;2023-04-16T02:30:57;6.18;;;5.68;;
51148;SDS011;37210;50.058;8.688;2023-04-16T02:33:27;7.20;;;6.50;;
51148;SDS011;37210;50.058;8.688;2023-04-16T02:36:00;6.72;;;6.03;;
51148;SDS011;37210;50.058;8.688;2023-04-16T02:38:28;6.93;;;6.28;;
51148;SDS011;37210;50.058;8.688;2023-04-16T02:40:55;6.40;;;5.78;;
51148;SDS011;37210;50.058;8.688;2023-04-16T02:43:25;7.50;;;6.68;;
51148;SDS011;37210;50.058;8.688;2023-04-16T02:45:52;6.65;;;5.93;;
51148;SDS011;37210;50.058;8.688;2023-04-16T02:48:20;6.93;;;6.22;;
51148;SDS011;37210;50.058;8.688;2023-04-16T02:50:47;6.97;;;6.30;;
51148;SDS011;37210;50.058;8.688;2023-04-16T02:53:15;7.78;;;6.97;;
51148;SDS011;37210;50.058;8.688;2023-04-16T02:55:45;7.00;;;6.30;;
51148;SDS011;37210;50.058;8.688;2023-04-16T02:58:17;7.35;;;6.43;;
51148;SDS011;37210;50.058;8.688;2023-04-16T03:00:46;7.20;;;6.60;;
51148;SDS011;37210;50.058;8.688;2023-04-16T03:03:14;6.97;;;6.28;;
51148;SDS011;37210;50.058;8.688;2023-04-16T03:05:42;7.75;;;6.95;;
51148;SDS011;37210;50.058;8.688;2023-04-16T03:08:10;7.15;;;6.45;;
51148;SDS011;37210;50.058;8.688;2023-04-16T03:10:37;7.60;;;6.80;;
51148;SDS011;37210;50.058;8.688;2023-04-16T03:13:06;7.45;;;6.78;;
51148;SDS011;37210;50.058;8.688;2023-04-16T03:15:33;6.68;;;5.97;;
51148;SDS011;37210;50.058;8.688;2023-04-16T03:18:02;6.85;;;6.25;;
51148;SDS011;37210;50.058;8.688;2023-04-16T03:20:29;7.13;;;6.43;;
51148;SDS011;37210;50.058;8.688;2023-04-16T03:22:57;6.57;;;6.00;;
51148;SDS011;37210;50.058;8.688;2023-04-16T03:25:24;9.15;;;7.68;;
51148;SDS011;37210;50.058;8.688;2023-04-16T03:27:52;7.28;;;6.60;;
51148;SDS011;37210;50.058;8.688;2023-04-16T03:30:19;6.95;;;6.28;;
51148;SDS011;37210;50.058;8.688;2023-04-16T03:32:46;7.65;;;6.65;;
51148;SDS011;37210;50.058;8.688;2023-04-16T03:35:16;7.68;;;6.97;;
51148;SDS011;37210;50.058;8.688;2023-04-16T03:37:44;7.15;;;6.47;;
51148;SDS011;37210;50.058;8.688;2023-04-16T03:40:11;8.98;;;7.43;;
51148;SDS011;37210;50.058;8.688;2023-04-16T03:42:40;7.55;;;6.85;;
51148;SDS011;37210;50.058;8.688;2023-04-16T03:45:08;7.05;;;6.38;;
51148;SDS011;37210;50.058;8.688;2023-04-16T03:47:37;8.35;;;7.63;;
51148;SDS011;37210;50.058;8.688;2023-04-16T03:50:07;7.85;;;7.05;;
51148;SDS011;37210;50.058;8.688;2023-04-16T03:52:37;7.85;;;7.05;;
51148;SDS011;37210;50.058;8.688;2023-04-16T03:55:06;7.50;;;6.80;;
51148;SDS011;37210;50.058;8.688;2023-04-16T03:57:34;9.35;;;8.40;;
51148;SDS011;37210;50.058;8.688;2023-04-16T04:00:07;8.60;;;7.70;;
51148;SDS011;37210;50.058;8.688;2023-04-16T04:03:00;8.73;;;7.93;;
51148;SDS011;37210;50.058;8.688;2023-04-16T04:05:28;8.00;;;7.05;;
51148;SDS011;37210;50.058;8.688;2023-04-16T04:07:59;7.93;;;7.18;;
51148;SDS011;37210;50.058;8.688;2023-04-16T04:10:30;8.50;;;7.47;;
51148;SDS011;37210;50.058;8.688;2023-04-16T04:12:58;8.57;;;7.63;;
51148;SDS011;37210;50.058;8.688;2023-04-16T04:15:27;7.90;;;7.10;;
51148;SDS011;37210;50.058;8.688;2023-04-16T04:17:54;8.60;;;7.70;;
51148;SDS011;37210;50.058;8.688;2023-04-16T04:20:22;8.25;;;6.78;;
51148;SDS011;37210;50.058;8.688;2023-04-16T04:22:51;8.55;;;6.93;;
51148;SDS011;37210;50.058;8.688;2023-04-16T04:25:23;8.27;;;7.47;;
51148;SDS011;37210;50.058;8.688;2023-04-16T04:27:51;9.18;;;7.55;;
51148;SDS011;37210;50.058;8.688;2023-04-16T04:30:19;6.80;;;6.20;;
51148;SDS011;37210;50.058;8.688;2023-04-16T04:32:46;7.60;;;6.80;;
51148;SDS011;37210;50.058;8.688;2023-04-16T04:35:15;6.82;;;6.20;;
51148;SDS011;37210;50.058;8.688;2023-04-16T04:37:43;8.70;;;7.03;;
51148;SDS011;37210;50.058;8.688;2023-04-16T04:40:18;7.28;;;6.57;;
51148;SDS011;37210;50.058;8.688;2023-04-16T04:42:47;7.43;;;6.75;;
51148;SDS011;37210;50.058;8.688;2023-04-16T04:45:15;7.18;;;6.47;;
51148;SDS011;37210;50.058;8.688;2023-04-16T04:47:42;7.75;;;6.97;;
51148;SDS011;37210;50.058;8.688;2023-04-16T04:50:10;6.85;;;6.22;;
51148;SDS011;37210;50.058;8.688;2023-04-16T04:52:37;8.00;;;6.65;;
51148;SDS011;37210;50.058;8.688;2023-04-16T04:55:06;7.68;;;6.97;;
51148;SDS011;37210;50.058;8.688;2023-04-16T04:57:35;7.05;;;6.30;;
51148;SDS011;37210;50.058;8.688;2023-04-16T05:00:05;8.05;;;6.88;;
51148;SDS011;37210;50.058;8.688;2023-04-16T05:02:47;6.78;;;6.05;;
51148;SDS011;37210;50.058;8.688;2023-04-16T05:05:14;7.28;;;6.50;;
51148;SDS011;37210;50.058;8.688;2023-04-16T05:07:42;7.72;;;6.60;;
51148;SDS011;37210;50.058;8.688;2023-04-16T05:10:10;9.32;;;7.03;;
51148;SDS011;37210;50.058;8.688;2023-04-16T05:12:37;8.07;;;7.25;;
51148;SDS011;37210;50.058;8.688;2023-04-16T05:15:07;8.63;;;7.72;;
51148;SDS011;37210;50.058;8.688;2023-04-16T05:17:36;8.80;;;7.53;;
51148;SDS011;37210;50.058;8.688;2023-04-16T05:20:03;8.80;;;7.90;;
51148;SDS011;37210;50.058;8.688;2023-04-16T05:22:32;9.07;;;7.30;;
51148;SDS011;37210;50.058;8.688;2023-04-16T05:24:59;8.80;;;7.60;;
51148;SDS011;37210;50.058;8.688;2023-04-16T05:27:27;9.07;;;7.95;;
51148;SDS011;37210;50.058;8.688;2023-04-16T05:29:54;8.52;;;7.07;;
51148;SDS011;37210;50.058;8.688;2023-04-16T05:32:23;7.72;;;7.03;;
51148;SDS011;37210;50.058;8.688;2023-04-16T05:34:52;8.10;;;7.10;;
51148;SDS011;37210;50.058;8.688;2023-04-16T05:37:19;8.75;;;7.13;;
51148;SDS011;37210;50.058;8.688;2023-04-16T05:39:47;7.53;;;6.82;;
51148;SDS011;37210;50.058;8.688;2023-04-16T05:42:14;7.88;;;7.07;;
51148;SDS011;37210;50.058;8.688;2023-04-16T05:44:42;7.28;;;6.53;;
51148;SDS011;37210;50.058;8.688;2023-04-16T05:47:09;7.40;;;6.70;;
51148;SDS011;37210;50.058;8.688;2023-04-16T05:49:38;7.88;;;6.53;;
51148;SDS011;37210;50.058;8.688;2023-04-16T05:52:05;7.18;;;6.40;;
51148;SDS011;37210;50.058;8.688;2023-04-16T05:54:33;7.32;;;6.63;;
51148;SDS011;37210;50.058;8.688;2023-04-16T05:57:00;7.30;;;6.00;;
51148;SDS011;37210;50.058;8.688;2023-04-16T05:59:28;7.40;;;6.70;;
51148;SDS011;37210;50.058;8.688;2023-04-16T06:01:56;7.25;;;6.55;;
51148;SDS011;37210;50.058;8.688;2023-04-16T06:04:23;6.82;;;6.22;;
51148;SDS011;37210;50.058;8.688;2023-04-16T06:06:52;6.80;;;6.20;;
51148;SDS011;37210;50.058;8.688;2023-04-16T06:09:20;6.50;;;5.82;;
51148;SDS011;37210;50.058;8.688;2023-04-16T06:11:47;7.65;;;6.38;;
51148;SDS011;37210;50.058;8.688;2023-04-16T06:14:15;6.90;;;6.28;;
51148;SDS011;37210;50.058;8.688;2023-04-16T06:16:42;6.38;;;5.60;;
51148;SDS011;37210;50.058;8.688;2023-04-16T06:19:10;6.88;;;5.72;;
51148;SDS011;37210;50.058;8.688;2023-04-16T06:21:37;6.70;;;6.10;;
51148;SDS011;37210;50.058;8.688;2023-04-16T06:24:06;7.32;;;6.18;;
51148;SDS011;37210;50.058;8.688;2023-04-16T06:26:33;6.72;;;6.03;;
51148;SDS011;37210;50.058;8.688;2023-04-16T06:29:01;6.72;;;5.97;;
51148;SDS011;37210;50.058;8.688;2023-04-16T06:31:28;6.75;;;6.15;;
51148;SDS011;37210;50.058;8.688;2023-04-16T06:33:56;8.25;;;6.70;;
51148;SDS011;37210;50.058;8.688;2023-04-16T06:36:23;7.53;;;6.72;;
51148;SDS011;37210;50.058;8.688;2023-04-16T06:38:52;7.43;;;6.78;;
51148;SDS011;37210;50.058;8.688;2023-04-16T06:41:21;6.38;;;5.80;;
51148;SDS011;37210;50.058;8.688;2023-04-16T06:43:50;7.45;;;6.75;;
51148;SDS011;37210;50.058;8.688;2023-04-16T06:46:18;7.75;;;7.05;;
51148;SDS011;37210;50.058;8.688;2023-04-16T06:48:45;7.70;;;6.90;;
51148;SDS011;37210;50.058;8.688;2023-04-16T06:51:13;7.90;;;7.13;;
51148;SDS011;37210;50.058;8.688;2023-04-16T06:53:40;7.65;;;6.95;;
51148;SDS011;37210;50.058;8.688;2023-04-16T06:56:08;7.90;;;6.95;;
51148;SDS011;37210;50.058;8.688;2023-04-16T06:58:37;7.63;;;6.95;;
51148;SDS011;37210;50.058;8.688;2023-04-16T07:01:04;8.60;;;7.75;;
51148;SDS011;37210;50.058;8.688;2023-04-16T07:03:31;8.27;;;7.47;;
51148;SDS011;37210;50.058;8.688;2023-04-16T07:05:59;8.73;;;7.93;;
51148;SDS011;37210;50.058;8.688;2023-04-16T07:08:27;8.20;;;7.50;;
51148;SDS011;37210;50.058;8.688;2023-04-16T07:10:54;10.18;;;8.32;;
51148;SDS011;37210;50.058;8.688;2023-04-16T07:13:21;9.35;;;8.45;;
51148;SDS011;37210;50.058;8.688;2023-04-16T07:15:50;8.63;;;7.82;;
51148;SDS011;37210;50.058;8.688;2023-04-16T07:18:18;8.75;;;7.85;;
51148;SDS011;37210;50.058;8.688;2023-04-16T07:20:46;8.68;;;7.78;;
51148;SDS011;37210;50.058;8.688;2023-04-16T07:23:14;10.00;;;8.18;;
51148;SDS011;37210;50.058;8.688;2023-04-16T07:25:41;9.77;;;8.35;;
51148;SDS011;37210;50.058;8.688;2023-04-16T07:28:08;10.02;;;9.10;;
51148;SDS011;37210;50.058;8.688;2023-04-16T07:30:36;11.55;;;8.90;;
51148;SDS011;37210;50.058;8.688;2023-04-16T07:33:04;12.40;;;9.63;;
51148;SDS011;37210;50.058;8.688;2023-04-16T07:35:32;10.57;;;9.25;;
51148;SDS011;37210;50.058;8.688;2023-04-16T07:37:59;9.93;;;8.80;;
51148;SDS011;37210;50.058;8.688;2023-04-16T07:40:27;9.00;;;8.02;;
51148;SDS011;37210;50.058;8.688;2023-04-16T07:42:55;8.75;;;7.55;;
51148;SDS011;37210;50.058;8.688;2023-04-16T07:45:23;8.35;;;7.50;;
51148;SDS011;37210;50.058;8.688;2023-04-16T07:47:50;8.75;;;7.85;;
51148;SDS011;37210;50.058;8.688;2023-04-16T07:50:19;7.93;;;7.10;;
51148;SDS011;37210;50.058;8.688;2023-04-16T07:52:46;7.15;;;6.45;;
51148;SDS011;37210;50.058;8.688;2023-04-16T07:55:14;8.13;;;7.32;;
51148;SDS011;37210;50.058;8.688;2023-04-16T07:57:41;7.82;;;6.70;;
51148;SDS011;37210;50.058;8.688;2023-04-16T08:00:09;8.15;;;6.60;;
51148;SDS011;37210;50.058;8.688;2023-04-16T08:02:41;6.85;;;6.15;;
51148;SDS011;37210;50.058;8.688;2023-04-16T08:05:10;7.45;;;6.43;;
51148;SDS011;37210;50.058;8.688;2023-04-16T08:07:39;7.13;;;6.35;;
51148;SDS011;37210;50.058;8.688;2023-04-16T08:10:07;6.72;;;6.00;;
51148;SDS011;37210;50.058;8.688;2023-04-16T08:12:35;9.55;;;6.22;;
51148;SDS011;37210;50.058;8.688;2023-04-16T08:15:03;6.13;;;5.63;;
51148;SDS011;37210;50.058;8.688;2023-04-16T08:17:32;8.23;;;6.85;;
51148;SDS011;37210;50.058;8.688;2023-04-16T08:20:00;7.07;;;6.22;;
51148;SDS011;37210;50.058;8.688;2023-04-16T08:22:28;9.38;;;6.93;;
51148;SDS011;37210;50.058;8.688;2023-04-16T08:24:57;8.45;;;7.30;;
51148;SDS011;37210;50.058;8.688;2023-04-16T08:27:25;8.70;;;7.18;;
51148;SDS011;37210;50.058;8.688;2023-04-16T08:29:53;8.15;;;7.22;;
51148;SDS011;37210;50.058;8.688;2023-04-16T08:32:20;8.70;;;7.72;;
51148;SDS011;37210;50.058;8.688;2023-04-16T08:34:48;11.23;;;7.45;;
51148;SDS011;37210;50.058;8.688;2023-04-16T08:37:16;8.10;;;7.05;;
51148;SDS011;37210;50.058;8.688;2023-04-16T08:39:43;8.05;;;7.28;;
51148;SDS011;37210;50.058;8.688;2023-04-16T08:42:13;8.73;;;7.57;;
51148;SDS011;37210;50.058;8.688;2023-04-16T08:44:49;8.93;;;8.07;;
51148;SDS011;37210;50.058;8.688;2023-04-16T08:47:29;10.07;;;8.80;;
51148;SDS011;37210;50.058;8.688;2023-04-16T08:50:02;8.77;;;7.88;;
51148;SDS011;37210;50.058;8.688;2023-04-16T08:52:31;9.32;;;8.40;;
51148;SDS011;37210;50.058;8.688;2023-04-16T08:55:05;10.32;;;9.15;;
51148;SDS011;37210;50.058;8.688;2023-04-16T08:57:41;9.27;;;7.97;;
51148;SDS011;37210;50.058;8.688;2023-04-16T09:00:14;9.73;;;8.30;;
51148;SDS011;37210;50.058;8.688;2023-04-16T09:02:43;11.57;;;10.07;;
51148;SDS011;37210;50.058;8.688;2023-04-16T09:05:13;10.80;;;9.75;;
51148;SDS011;37210;50.058;8.688;2023-04-16T09:07:44;12.98;;;10.93;;
51148;SDS011;37210;50.058;8.688;2023-04-16T09:10:14;9.32;;;8.35;;
51148;SDS011;37210;50.058;8.688;2023-04-16T09:12:44;13.27;;;11.95;;
51148;SDS011;37210;50.058;8.688;2023-04-16T09:15:12;10.73;;;9.73;;
51148;SDS011;37210;50.058;8.688;2023-04-16T09:17:40;14.02;;;12.70;;
51148;SDS011;37210;50.058;8.688;2023-04-16T09:20:08;11.05;;;9.95;;
51148;SDS011;37210;50.058;8.688;2023-04-16T09:22:37;30.23;;;26.83;;
51148;SDS011;37210;50.058;8.688;2023-04-16T09:25:06;21.25;;;19.02;;
51148;SDS011;37210;50.058;8.688;2023-04-16T09:27:35;20.75;;;18.60;;
51148;SDS011;37210;50.058;8.688;2023-04-16T09:32:48;12.73;;;11.63;;
51148;SDS011;37210;50.058;8.688;2023-04-16T09:35:17;13.05;;;11.68;;
51148;SDS011;37210;50.058;8.688;2023-04-16T09:37:53;16.25;;;14.65;;
51148;SDS011;37210;50.058;8.688;2023-04-16T09:40:23;17.20;;;15.13;;
51148;SDS011;37210;50.058;8.688;2023-04-16T09:42:55;15.90;;;14.30;;
51148;SDS011;37210;50.058;8.688;2023-04-16T09:45:28;9.65;;;8.55;;
51148;SDS011;37210;50.058;8.688;2023-04-16T09:48:01;14.52;;;12.98;;
51148;SDS011;37210;50.058;8.688;2023-04-16T09:50:30;12.23;;;10.48;;
51148;SDS011;37210;50.058;8.688;2023-04-16T09:52:59;16.88;;;13.75;;
51148;SDS011;37210;50.058;8.688;2023-04-16T09:55:29;19.58;;;17.55;;
51148;SDS011;37210;50.058;8.688;2023-04-16T09:57:59;13.23;;;11.82;;
51148;SDS011;37210;50.058;8.688;2023-04-16T10:00:29;14.10;;;12.63;;
51148;SDS011;37210;50.058;8.688;2023-04-16T10:03:06;12.52;;;11.23;;
51148;SDS011;37210;50.058;8.688;2023-04-16T10:05:33;16.02;;;13.07;;
51148;SDS011;37210;50.058;8.688;2023-04-16T10:08:01;19.77;;;17.58;;
51148;SDS011;37210;50.058;8.688;2023-04-16T10:10:29;10.23;;;9.13;;
51148;SDS011;37210;50.058;8.688;2023-04-16T10:12:58;10.02;;;9.07;;
51148;SDS011;37210;50.058;8.688;2023-04-16T10:15:27;11.60;;;10.10;;
51148;SDS011;37210;50.058;8.688;2023-04-16T10:17:56;10.07;;;9.07;;
51148;SDS011;37210;50.058;8.688;2023-04-16T10:20:25;8.90;;;8.00;;
51148;SDS011;37210;50.058;8.688;2023-04-16T10:22:53;9.02;;;8.23;;
51148;SDS011;37210;50.058;8.688;2023-04-16T10:25:21;9.57;;;8.65;;
51148;SDS011;37210;50.058;8.688;2023-04-16T10:27:50;10.13;;;7.90;;
51148;SDS011;37210;50.058;8.688;2023-04-16T10:30:18;8.50;;;7.70;;
51148;SDS011;37210;50.058;8.688;2023-04-16T10:32:48;9.75;;;8.43;;
51148;SDS011;37210;50.058;8.688;2023-04-16T10:35:18;8.40;;;7.60;;
51148;SDS011;37210;50.058;8.688;2023-04-16T10:37:46;8.13;;;7.43;;
51148;SDS011;37210;50.058;8.688;2023-04-16T10:40:23;9.43;;;8.25;;
51148;SDS011;37210;50.058;8.688;2023-04-16T10:42:54;8.90;;;8.00;;
51148;SDS011;37210;50.058;8.688;2023-04-16T10:45:28;8.48;;;7.63;;
51148;SDS011;37210;50.058;8.688;2023-04-16T10:47:59;8.75;;;7.90;;
51148;SDS011;37210;50.058;8.688;2023-04-16T10:50:33;8.68;;;7.88;;
51148;SDS011;37210;50.058;8.688;2023-04-16T10:53:15;8.85;;;7.60;;
51148;SDS011;37210;50.058;8.688;2023-04-16T10:58:38;8.15;;;7.43;;
51148;SDS011;37210;50.058;8.688;2023-04-16T11:01:06;9.48;;;8.52;;
51148;SDS011;37210;50.058;8.688;2023-04-16T11:03:43;8.38;;;7.57;;
51148;SDS011;37210;50.058;8.688;2023-04-16T11:06:13;9.15;;;8.15;;
51148;SDS011;37210;50.058;8.688;2023-04-16T11:08:43;8.38;;;7.57;;
51148;SDS011;37210;50.058;8.688;2023-04-16T11:11:12;8.57;;;7.72;;
51148;SDS011;37210;50.058;8.688;2023-04-16T11:13:41;9.20;;;8.30;;
51148;SDS011;37210;50.058;8.688;2023-04-16T11:16:11;9.23;;;8.32;;
51148;SDS011;37210;50.058;8.688;2023-04-16T11:18:40;9.77;;;8.43;;
51148;SDS011;37210;50.058;8.688;2023-04-16T11:21:09;9.25;;;8.38;;
51148;SDS011;37210;50.058;8.688;2023-04-16T11:23:45;9.50;;;8.48;;
51148;SDS011;37210;50.058;8.688;2023-04-16T11:26:23;9.63;;;8.70;;
51148;SDS011;37210;50.058;8.688;2023-04-16T11:28:53;9.65;;;8.60;;
51148;SDS011;37210;50.058;8.688;2023-04-16T11:31:22;10.40;;;8.80;;
51148;SDS011;37210;50.058;8.688;2023-04-16T11:33:51;9.43;;;8.43;;
51148;SDS011;37210;50.058;8.688;2023-04-16T11:36:23;11.73;;;9.18;;
51148;SDS011;37210;50.058;8.688;2023-04-16T11:38:59;9.20;;;8.40;;
51148;SDS011;37210;50.058;8.688;2023-04-16T11:41:29;10.32;;;9.32;;
51148;SDS011;37210;50.058;8.688;2023-04-16T11:43:57;9.68;;;8.77;;
51148;SDS011;37210;50.058;8.688;2023-04-16T11:46:36;10.32;;;8.95;;
51148;SDS011;37210;50.058;8.688;2023-04-16T11:49:05;10.93;;;9.23;;
51148;SDS011;37210;50.058;8.688;2023-04-16T11:51:39;10.13;;;9.23;;
51148;SDS011;37210;50.058;8.688;2023-04-16T11:54:07;10.40;;;9.40;;
51148;SDS011;37210;50.058;8.688;2023-04-16T11:56:36;10.50;;;9.32;;
51148;SDS011;37210;50.058;8.688;2023-04-16T11:59:05;11.25;;;10.13;;
51148;SDS011;37210;50.058;8.688;2023-04-16T12:01:37;10.10;;;9.07;;
51148;SDS011;37210;50.058;8.688;2023-04-16T12:04:13;11.00;;;9.47;;
51148;SDS011;37210;50.058;8.688;2023-04-16T12:09:34;12.48;;;10.10;;
51148;SDS011;37210;50.058;8.688;2023-04-16T12:12:04;10.75;;;9.65;;
51148;SDS011;37210;50.058;8.688;2023-04-16T12:14:32;12.13;;;10.90;;
51148;SDS011;37210;50.058;8.688;2023-04-16T12:19:48;10.40;;;9.35;;
51148;SDS011;37210;50.058;8.688;2023-04-16T12:22:26;10.95;;;9.70;;
51148;SDS011;37210;50.058;8.688;2023-04-16T12:24:59;11.52;;;10.43;;
51148;SDS011;37210;50.058;8.688;2023-04-16T12:27:45;10.30;;;9.40;;
51148;SDS011;37210;50.058;8.688;2023-04-16T12:30:17;10.70;;;9.70;;
51148;SDS011;37210;50.058;8.688;2023-04-16T12:32:47;10.30;;;9.40;;
51148;SDS011;37210;50.058;8.688;2023-04-16T12:35:28;11.52;;;10.43;;
51148;SDS011;37210;50.058;8.688;2023-04-16T12:38:03;10.88;;;9.77;;
51148;SDS011;37210;50.058;8.688;2023-04-16T12:40:31;11.82;;;10.73;;
51148;SDS011;37210;50.058;8.688;2023-04-16T12:43:00;11.60;;;10.40;;
51148;SDS011;37210;50.058;8.688;2023-04-16T12:45:29;11.55;;;10.55;;
51148;SDS011;37210;50.058;8.688;2023-04-16T12:48:01;11.32;;;10.23;;
51148;SDS011;37210;50.058;8.688;2023-04-16T12:50:30;12.23;;;10.93;;
51148;SDS011;37210;50.058;8.688;2023-04-16T12:52:58;11.85;;;10.65;;
51148;SDS011;37210;50.058;8.688;2023-04-16T12:55:28;12.25;;;11.15;;
51148;SDS011;37210;50.058;8.688;2023-04-16T12:57:56;11.63;;;10.50;;
51148;SDS011;37210;50.058;8.688;2023-04-16T13:00:28;12.35;;;11.15;;
51148;SDS011;37210;50.058;8.688;2023-04-16T13:02:56;13.48;;;12.18;;
51148;SDS011;37210;50.058;8.688;2023-04-16T13:05:24;13.25;;;11.90;;
51148;SDS011;37210;50.058;8.688;2023-04-16T13:07:52;13.68;;;12.38;;
51148;SDS011;37210;50.058;8.688;2023-04-16T13:10:20;14.07;;;12.65;;
51148;SDS011;37210;50.058;8.688;2023-04-16T13:12:50;14.48;;;13.05;;
51148;SDS011;37210;50.058;8.688;2023-04-16T13:15:18;14.85;;;13.30;;
51148;SDS011;37210;50.058;8.688;2023-04-16T13:17:45;15.93;;;14.43;;
51148;SDS011;37210;50.058;8.688;2023-04-16T13:20:13;15.18;;;13.77;;
51148;SDS011;37210;50.058;8.688;2023-04-16T13:22:41;14.85;;;13.35;;
51148;SDS011;37210;50.058;8.688;2023-04-16T13:25:09;14.85;;;13.35;;
51148;SDS011;37210;50.058;8.688;2023-04-16T13:27:37;15.27;;;13.55;;
51148;SDS011;37210;50.058;8.688;2023-04-16T13:30:07;15.00;;;13.50;;
51148;SDS011;37210;50.058;8.688;2023-04-16T13:32:36;14.48;;;12.73;;
51148;SDS011;37210;50.058;8.688;2023-04-16T13:35:05;14.85;;;13.45;;
51148;SDS011;37210;50.058;8.688;2023-04-16T13:37:34;15.20;;;13.60;;
51148;SDS011;37210;50.058;8.688;2023-04-16T13:40:01;13.77;;;12.48;;
51148;SDS011;37210;50.058;8.688;2023-04-16T13:42:29;15.57;;;13.88;;
51148;SDS011;37210;50.058;8.688;2023-04-16T13:44:57;14.70;;;13.18;;
51148;SDS011;37210;50.058;8.688;2023-04-16T13:47:27;14.52;;;13.02;;
51148;SDS011;37210;50.058;8.688;2023-04-16T13:49:55;53.67;;;40.78;;
51148;SDS011;37210;50.058;8.688;2023-04-16T13:52:22;18.83;;;17.15;;
51148;SDS011;37210;50.058;8.688;2023-04-16T13:54:50;15.05;;;13.43;;
51148;SDS011;37210;50.058;8.688;2023-04-16T13:57:21;17.15;;;15.35;;
51148;SDS011;37210;50.058;8.688;2023-04-16T13:59:48;15.77;;;14.27;;
51148;SDS011;37210;50.058;8.688;2023-04-16T14:02:16;15.55;;;13.95;;
51148;SDS011;37210;50.058;8.688;2023-04-16T14:04:45;15.77;;;13.70;;
51148;SDS011;37210;50.058;8.688;2023-04-16T14:07:12;16.77;;;14.88;;
51148;SDS011;37210;50.058;8.688;2023-04-16T14:09:41;15.25;;;13.65;;
51148;SDS011;37210;50.058;8.688;2023-04-16T14:12:08;15.65;;;14.05;;
51148;SDS011;37210;50.058;8.688;2023-04-16T14:14:36;14.35;;;12.82;;
51148;SDS011;37210;50.058;8.688;2023-04-16T14:17:03;15.90;;;13.95;;
51148;SDS011;37210;50.058;8.688;2023-04-16T14:19:32;14.18;;;12.68;;
51148;SDS011;37210;50.058;8.688;2023-04-16T14:22:01;16.48;;;14.77;;
51148;SDS011;37210;50.058;8.688;2023-04-16T14:24:28;16.85;;;15.07;;
51148;SDS011;37210;50.058;8.688;2023-04-16T14:26:56;15.63;;;14.02;;
51148;SDS011;37210;50.058;8.688;2023-04-16T14:29:23;15.68;;;14.18;;
51148;SDS011;37210;50.058;8.688;2023-04-16T14:31:50;15.73;;;13.40;;
51148;SDS011;37210;50.058;8.688;2023-04-16T14:34:18;16.25;;;14.13;;
51148;SDS011;37210;50.058;8.688;2023-04-16T14:36:45;15.57;;;13.98;;
51148;SDS011;37210;50.058;8.688;2023-04-16T14:39:15;16.90;;;14.68;;
51148;SDS011;37210;50.058;8.688;2023-04-16T14:41:43;17.42;;;15.65;;
51148;SDS011;37210;50.058;8.688;2023-04-16T14:44:10;15.93;;;14.43;;
51148;SDS011;37210;50.058;8.688;2023-04-16T14:46:38;15.63;;;14.00;;
51148;SDS011;37210;50.058;8.688;2023-04-16T14:49:05;15.80;;;13.60;;
51148;SDS011;37210;50.058;8.688;2023-04-16T14:51:35;25.40;;;22.73;;
51148;SDS011;37210;50.058;8.688;2023-04-16T14:54:02;16.75;;;15.07;;
51148;SDS011;37210;50.058;8.688;2023-04-16T14:56:31;14.27;;;12.77;;
51148;SDS011;37210;50.058;8.688;2023-04-16T14:58:59;18.50;;;16.48;;
51148;SDS011;37210;50.058;8.688;2023-04-16T15:01:26;13.27;;;11.90;;
51148;SDS011;37210;50.058;8.688;2023-04-16T15:03:54;17.20;;;15.48;;